Latest Weather Observations for Yarrawonga

IDN60801

Issued at 11:04 am EDT Monday 2 February 2015 (issued every 30 minutes, with the page automatically refreshed every 10 minutes)

About weather observations | Map of weather stations | Latest weather observations for NSW | Other Formats
Station Details ID: 081124 Name: YARRAWONGA Lat: -36.03 Lon: 146.03 Height: 128.9 m
Data from the previous 72 hours. | See also: Recent months at Yarrawonga
Date/Time
EDT
Temp
°C
App
Temp
°C
Dew
Point
Rel
Hum
%
Delta-T
°C
Wind Press
QNH
hPa
Press
MSL
hPa
Rain
since 9 am
mm
Dir
 
Spd
km/h
Gust
km/h
Spd
kts
Gust
kts
02/11:00am 24.0 21.6 7.2 34 8.8 E 9 17 5 9 1016.8 1016.2 0.0
02/10:30am 23.6 21.3 7.3 35 8.5 ESE 9 15 5 8 1016.6 1016.0 0.0
02/10:00am 23.1 20.7 7.2 36 8.3 ESE 9 17 5 9 1016.6 1016.0 0.0
02/09:30am 22.3 19.5 8.4 41 7.4 SSE 13 22 7 12 1016.6 1016.0 0.0
02/09:00am 21.2 18.8 8.8 45 6.6 SSE 11 17 6 9 1016.2 1015.6 0.0
02/08:30am 19.7 17.9 9.3 51 5.5 SSE 9 15 5 8 1015.8 1015.2 0.0
02/08:00am 17.4 15.6 9.6 60 4.1 S 9 13 5 7 1015.4 1014.8 0.0
02/07:30am 15.1 14.0 10.1 72 2.6 SSW 6 6 3 3 1014.8 1014.3 0.0
02/07:00am 12.4 11.0 9.4 82 1.5 SSW 7 7 4 4 1014.4 1013.9 0.0
02/06:30am 12.0 10.5 9.0 82 1.5 SSW 7 9 4 5 1013.8 1013.2 0.0
02/06:00am 12.7 11.2 9.2 79 1.8 SSW 7 11 4 6 1013.3 1012.7 0.0
02/05:30am 13.5 12.6 9.2 75 2.2 SSW 4 6 2 3 1013.1 1012.5 0.0
02/05:00am 13.3 11.4 9.0 75 2.2 S 9 11 5 6 1012.9 1012.3 0.0
02/04:30am 13.4 11.5 9.1 75 2.2 SSW 9 9 5 5 1012.5 1011.9 0.0
02/04:00am 13.9 12.1 9.3 74 2.4 SSW 9 13 5 7 1012.5 1011.9 0.0
02/03:30am 14.0 12.2 9.6 75 2.3 SSW 9 9 5 5 1012.1 1011.5 0.0
02/03:00am 14.3 13.1 9.7 74 2.4 S 6 9 3 5 1012.1 1011.5 0.0
02/02:30am 14.7 13.1 10.1 74 2.4 S 9 11 5 6 1012.2 1011.6 0.0
02/02:00am 14.7 13.8 10.7 77 2.1 S 6 9 3 5 1012.2 1011.6 0.0
02/01:30am 14.4 13.6 11.0 80 1.8 SSE 6 6 3 3 1012.1 1011.5 0.0
02/01:00am 14.8 14.3 10.8 77 2.1 S 4 4 2 2 1012.2 1011.6 0.0
02/12:30am 15.8 15.1 11.4 75 2.4 SSW 6 7 3 4 1011.9 1011.3 0.0
02/12:00am 16.9 16.1 11.8 72 2.8 SSW 7 9 4 5 1011.6 1011.0 0.0
 
Date/Time
EDT
Temp
°C
App
Temp
°C
Dew
Point
Rel
Hum
%
Delta-T
°C
Wind Press
QNH
hPa
Press
MSL
hPa
Rain
since 9 am
mm
Dir
 
Spd
km/h
Gust
km/h
Spd
kts
Gust
kts
01/11:30pm 17.9 16.5 12.1 69 3.2 SW 11 15 6 8 1011.4 1010.8 0.0
01/11:00pm 18.6 16.8 12.1 66 3.6 SW 13 19 7 10 1011.1 1010.5 0.0
01/10:30pm 19.3 17.1 12.1 63 4.0 SW 15 19 8 10 1010.9 1010.3 0.0
01/10:00pm 20.3 17.1 12.0 59 4.7 SW 20 28 11 15 1010.7 1010.1 0.0
01/09:30pm 21.1 18.4 11.7 55 5.3 SW 17 22 9 12 1010.2 1009.6 0.0
01/09:00pm 22.2 18.4 11.3 50 6.1 WSW 22 28 12 15 1009.6 1009.0 0.0
01/08:30pm 23.0 17.5 10.4 45 7.0 WSW 30 41 16 22 1009.2 1008.6 0.0
01/08:00pm 24.4 19.1 9.9 40 8.0 WSW 28 39 15 21 1008.7 1008.1 0.0
01/07:30pm 25.7 19.4 9.1 35 9.1 WSW 32 43 17 23 1008.3 1007.7 0.0
01/07:00pm 26.6 19.6 8.6 32 9.8 WSW 35 48 19 26 1008.0 1007.4 0.0
01/06:30pm 27.2 20.2 8.6 31 10.2 WSW 35 44 19 24 1007.7 1007.1 0.0
01/06:00pm 28.1 21.6 8.9 30 10.6 W 33 44 18 24 1007.5 1006.9 0.0
01/05:30pm 28.9 23.0 9.1 29 11.0 WSW 30 44 16 24 1007.4 1006.8 0.0
01/05:00pm 29.6 25.9 8.1 26 11.8 WSW 17 35 9 19 1007.4 1006.8 0.0
01/04:30pm 29.4 26.6 8.5 27 11.6 SW 13 24 7 13 1007.5 1006.9 0.0
01/04:00pm 27.2 24.4 8.6 31 10.2 SW 13 22 7 12 1007.7 1007.1 0.0
01/03:30pm 27.6 24.8 8.5 30 10.5 WSW 13 20 7 11 1008.0 1007.4 0.0
01/03:00pm 27.0 25.9 8.4 31 10.2 WNW 4 11 2 6 1008.2 1007.6 0.0
01/02:30pm 28.3 26.0 9.1 30 10.7 WSW 11 20 6 11 1008.4 1007.8 0.0
01/02:00pm 25.7 23.8 9.1 35 9.1 SSW 9 17 5 9 1008.8 1008.2 0.0
01/01:30pm 25.9 24.4 9.3 35 9.1 ESE 7 13 4 7 1009.0 1008.4 0.0
01/01:00pm 26.6 25.3 9.9 35 9.3 WSW 7 17 4 9 1009.4 1008.8 0.0
01/12:30pm 26.2 24.9 10.0 36 9.0 WSW 7 13 4 7 1009.7 1009.1 0.0
01/12:00pm 25.6 24.6 10.2 38 8.6 S 6 13 3 7 1009.9 1009.3 0.0
01/11:30am 24.7 23.5 10.2 40 8.1 SSW 7 13 4 7 1010.2 1009.6 0.0
01/11:00am 23.6 23.0 10.3 43 7.4 W 4 9 2 5 1010.3 1009.7 0.0
01/10:30am 22.4 21.3 10.5 47 6.6 SSW 7 15 4 8 1010.5 1009.9 0.0
01/10:00am 21.4 19.8 10.3 49 6.1 S 9 19 5 10 1010.5 1009.9 0.0
01/09:30am 20.4 18.5 10.5 53 5.4 S 11 17 6 9 1010.4 1009.8 0.0
01/09:00am 19.3 17.0 10.6 57 4.7 S 13 22 7 12 1010.2 1009.6 0.0
01/08:30am 16.9 14.6 10.5 66 3.4 SSW 13 19 7 10 1010.1 1009.5 0.0
01/08:00am 16.4 14.2 10.7 69 3.1 SW 13 19 7 10 1009.7 1009.1 0.0
01/07:30am 14.2 12.3 10.4 78 2.0 SW 11 15 6 8 1009.4 1008.8 0.0
01/07:00am 12.9 11.3 10.3 84 1.4 SW 9 11 5 6 1009.3 1008.7 0.0
01/06:30am 12.2 10.9 9.8 85 1.2 WSW 7 9 4 5 1009.1 1008.5 0.0
01/06:00am 12.7 11.1 10.1 84 1.3 WSW 9 9 5 5 1008.9 1008.3 0.0
01/05:30am 12.5 10.4 9.9 84 1.3 SW 11 13 6 7 1008.7 1008.1 0.0
01/05:00am 12.8 10.4 10.0 83 1.5 WSW 13 15 7 8 1008.8 1008.2 0.0
01/04:30am 12.9 10.8 9.9 82 1.5 WSW 11 15 6 8 1008.8 1008.2 0.0
01/04:00am 12.7 11.0 9.7 82 1.5 SW 9 13 5 7 1008.6 1008.0 0.0
01/03:30am 12.9 10.8 9.7 81 1.6 SW 11 15 6 8 1008.8 1008.2 0.0
01/03:00am 13.4 11.7 9.8 79 1.9 SW 9 11 5 6 1009.0 1008.4 0.0
01/02:30am 14.1 11.7 9.9 76 2.2 WSW 13 15 7 8 1009.1 1008.5 0.0
01/02:00am 14.3 11.8 9.7 74 2.4 SW 13 15 7 8 1008.9 1008.3 0.0
01/01:30am 14.7 12.2 9.7 72 2.6 SW 13 15 7 8 1009.1 1008.5 0.0
01/01:00am 15.1 12.6 9.7 70 2.8 SW 13 17 7 9 1009.2 1008.6 0.0
01/12:30am 15.5 12.6 9.8 69 3.0 SW 15 17 8 9 1009.3 1008.7 0.0
01/12:00am 16.1 12.9 9.8 66 3.3 SW 17 20 9 11 1009.4 1008.8 0.0
 
Date/Time
EDT
Temp
°C
App
Temp
°C
Dew
Point
Rel
Hum
%
Delta-T
°C
Wind Press
QNH
hPa
Press
MSL
hPa
Rain
since 9 am
mm
Dir
 
Spd
km/h
Gust
km/h
Spd
kts
Gust
kts
31/11:30pm 16.7 12.9 9.9 64 3.6 SW 20 26 11 14 1009.5 1008.9 0.0
31/11:00pm 17.2 13.7 10.1 63 3.8 SW 19 24 10 13 1009.6 1009.0 0.0
31/10:30pm 17.7 14.2 10.3 62 4.0 SW 19 24 10 13 1009.8 1009.2 0.0
31/10:00pm 18.4 14.8 10.5 60 4.3 SW 20 30 11 16 1009.7 1009.1 0.0
31/09:30pm 19.3 15.0 10.6 57 4.7 WSW 24 32 13 17 1009.4 1008.8 0.0
31/09:00pm 20.3 15.6 10.7 54 5.3 SW 26 35 14 19 1008.9 1008.3 0.0
31/08:30pm 21.6 17.1 10.1 48 6.3 SW 24 33 13 18 1008.5 1007.9 0.0
31/08:00pm 23.3 18.4 10.0 43 7.3 SW 26 33 14 18 1008.1 1007.4 0.0
31/07:30pm 24.8 19.4 9.5 38 8.4 SW 28 37 15 20 1007.8 1007.1 0.0
31/07:00pm 25.7 20.6 9.1 35 9.1 SW 26 33 14 18 1007.4 1006.7 0.0
31/06:30pm 26.6 21.3 8.6 32 9.8 SW 26 37 14 20 1007.1 1006.4 0.0
31/06:00pm 27.1 21.7 8.0 30 10.4 WSW 26 37 14 20 1006.9 1006.2 0.0
31/05:30pm 27.2 22.5 7.6 29 10.5 SSW 22 41 12 22 1007.0 1006.3 0.0
31/05:00pm 28.1 22.6 7.4 27 11.2 SW 26 37 14 20 1007.3 1006.6 0.0
31/04:30pm 27.4 22.0 6.2 26 11.2 SW 24 37 13 20 1007.5 1006.8 0.0
31/04:00pm 27.6 22.5 7.5 28 10.8 SW 24 39 13 21 1007.6 1006.9 0.0
31/03:30pm 28.2 23.4 7.4 27 11.2 WSW 22 37 12 20 1007.7 1007.0 0.0
31/03:00pm 27.7 23.8 7.0 27 11.1 SW 17 35 9 19 1007.9 1007.2 0.0
31/02:30pm 27.4 23.5 7.3 28 10.8 WSW 17 33 9 18 1008.2 1007.5 0.0
31/02:00pm 26.3 22.0 6.9 29 10.3 SSW 19 30 10 16 1008.4 1007.7 0.0
31/01:30pm 25.8 21.5 6.9 30 10.0 WSW 19 30 10 16 1008.8 1008.2 0.0
31/01:00pm 25.7 22.1 6.8 30 10.0 SSW 15 30 8 16 1008.9 1008.3 0.0
31/12:30pm 24.7 22.4 7.4 33 9.1 S 9 15 5 8 1009.1 1008.5 0.0
31/12:00pm 23.9 21.2 7.5 35 8.7 SW 11 28 6 15 1009.5 1008.9 0.0
31/11:30am 22.6 20.2 7.2 37 8.0 S 9 24 5 13 1009.6 1009.0 0.0
31/11:00am 21.4 19.1 7.3 40 7.3 SSE 9 17 5 9 1009.8 1009.2 0.0
31/10:30am 20.8 18.5 7.4 42 6.9 S 9 17 5 9 1010.0 1009.4 0.0
31/10:00am 19.7 16.2 7.1 44 6.4 S 15 20 8 11 1010.3 1009.7 0.0
31/09:30am 18.8 15.5 7.9 49 5.6 SSW 15 20 8 11 1010.5 1009.9 0.0
31/09:00am 16.8 13.1 8.0 56 4.5 SSW 17 20 9 11 1010.6 1010.0 0.0
31/08:30am 16.0 12.4 8.2 60 4.0 SSW 17 24 9 13 1010.5 1009.9 0.0
31/08:00am 14.3 11.0 8.0 66 3.2 SW 15 20 8 11 1010.3 1009.7 0.0
31/07:30am 13.0 10.1 8.3 73 2.3 SW 13 15 7 8 1010.2 1009.6 0.0
31/07:00am 11.6 9.1 8.3 80 1.6 SSW 11 15 6 8 1009.8 1009.2 0.0
31/06:30am 11.1 8.6 8.1 82 1.5 SW 11 17 6 9 1009.6 1009.0 0.0
31/06:00am 11.1 8.6 8.1 82 1.5 SW 11 15 6 8 1009.4 1008.8 0.0
31/05:30am 10.8 8.6 8.0 83 1.4 SW 9 13 5 7 1009.3 1008.7 0.0
31/05:00am 10.9 8.4 8.0 82 1.4 WSW 11 11 6 6 1009.3 1008.7 0.0
31/04:30am 10.6 8.7 7.5 81 1.5 WSW 7 9 4 5 1009.1 1008.5 0.0
31/04:00am 11.1 8.8 7.6 79 1.7 WSW 9 9 5 5 1009.2 1008.6 0.0
31/03:30am 11.3 9.0 7.6 78 1.8 SW 9 11 5 6 1009.4 1008.8 0.0
31/03:00am 12.2 9.6 7.7 74 2.2 SW 11 11 6 6 1009.6 1009.0 0.0
31/02:30am 12.8 10.2 7.7 71 2.5 SW 11 11 6 6 1009.7 1009.1 0.0
31/02:00am 13.2 10.6 7.6 69 2.8 SW 11 13 6 7 1010.0 1009.4 0.0
31/01:30am 13.8 11.6 7.8 67 3.0 SW 9 13 5 7 1010.1 1009.5 0.0
31/01:00am 14.8 11.8 7.8 63 3.5 SSW 13 17 7 9 1010.3 1009.7 0.0
31/12:30am 14.4 12.0 7.2 62 3.6 SW 9 13 5 7 1010.4 1009.8 0.0
31/12:00am 15.9 12.9 7.7 58 4.1 SSW 13 17 7 9 1010.4 1009.8 0.0
 
Date/Time
EDT
Temp
°C
App
Temp
°C
Dew
Point
Rel
Hum
%
Delta-T
°C
Wind Press
QNH
hPa
Press
MSL
hPa
Rain
since 9 am
mm
Dir
 
Spd
km/h
Gust
km/h
Spd
kts
Gust
kts
30/11:30pm 15.5 12.7 7.0 57 4.2 SSW 11 13 6 7 1010.4 1009.8 0.0
30/11:00pm 16.5 13.7 6.9 53 4.8 SSW 11 13 6 7 1010.4 1009.8 0.0
30/10:30pm 17.4 14.2 6.9 50 5.3 S 13 17 7 9 1010.3 1009.7 0.0
30/10:00pm 18.0 14.8 6.8 48 5.6 S 13 17 7 9 1010.3 1009.7 0.0
30/09:30pm 19.0 14.6 6.5 44 6.3 S 19 24 10 13 1010.1 1009.5 0.0
30/09:00pm 19.5 15.5 6.6 43 6.5 S 17 22 9 12 1009.7 1009.1 0.0
30/08:30pm 20.4 16.4 6.7 41 7.0 S 17 24 9 13 1009.5 1008.9 0.0
30/08:00pm 21.9 17.4 6.2 36 8.0 S 19 24 10 13 1009.3 1008.7 0.0
30/07:30pm 22.8 17.7 6.1 34 8.5 SSW 22 32 12 17 1009.2 1008.6 0.0
30/07:00pm 23.9 19.3 5.8 31 9.3 S 19 32 10 17 1008.8 1008.2 0.0
30/06:30pm 24.3 19.6 6.1 31 9.4 S 20 35 11 19 1008.7 1008.1 0.0
30/06:00pm 25.1 20.5 5.8 29 10.0 S 19 30 10 16 1008.7 1008.1 0.0
30/05:30pm 25.7 21.8 5.3 27 10.5 SSW 15 28 8 15 1008.7 1008.1 0.0
30/05:00pm 25.9 22.4 5.5 27 10.5 SSW 13 26 7 14 1009.0 1008.4 0.0
30/04:30pm 26.3 21.1 5.3 26 10.8 S 22 33 12 18 1009.2 1008.6 0.0
30/04:00pm 25.4 21.0 4.5 26 10.6 SSW 17 32 9 17 1009.5 1008.9 0.0
30/03:30pm 25.0 20.5 4.2 26 10.4 SSE 17 32 9 17 1010.0 1009.4 0.0
30/03:00pm 24.5 19.9 3.8 26 10.3 S 17 28 9 15 1010.4 1009.8 0.0
30/02:30pm 24.5 19.4 4.3 27 10.1 SSW 20 35 11 19 1010.8 1010.2 0.0
30/02:00pm 24.2 19.2 4.6 28 9.8 SSW 20 30 11 16 1011.3 1010.7 0.0
30/01:30pm 23.8 19.7 4.2 28 9.7 S 15 28 8 15 1011.6 1011.0 0.0
30/01:00pm 22.5 17.0 4.1 30 9.0 SSW 22 33 12 18 1012.0 1011.4 0.0
30/12:30pm 22.8 19.5 4.8 31 9.0 SSE 11 28 6 15 1012.2 1011.6 0.0
30/12:00pm 22.9 18.7 5.8 33 8.7 SSW 17 30 9 16 1012.6 1012.0 0.0
30/11:30am 21.5 18.5 5.8 36 7.9 SSE 11 33 6 18 1013.0 1012.4 0.0

Other Formats:

Comma delimited format used in spreadsheet applications
http://www.bom.gov.au/fwo/IDN60801/IDN60801.94862.axf

JavaScript Object Notation format (JSON) in row-major order
http://www.bom.gov.au/fwo/IDN60801/IDN60801.94862.json